sensor_id;sensor_type;location;lat;lon;timestamp;pressure;altitude;pressure_sealevel;temperature;humidity
77770;BME280;66961;51.482;9.160;2023-06-24T00:01:28;100267.31;;;13.47;92.38
77770;BME280;66961;51.482;9.160;2023-06-24T00:03:53;100259.84;;;13.42;92.57
77770;BME280;66961;51.482;9.160;2023-06-24T00:06:19;100263.16;;;13.44;93.27
77770;BME280;66961;51.482;9.160;2023-06-24T00:08:45;100259.34;;;13.47;93.10
77770;BME280;66961;51.482;9.160;2023-06-24T00:11:11;100254.19;;;13.37;92.79
77770;BME280;66961;51.482;9.160;2023-06-24T00:13:36;100249.69;;;13.38;93.03
77770;BME280;66961;51.482;9.160;2023-06-24T00:16:01;100250.53;;;13.38;92.92
77770;BME280;66961;51.482;9.160;2023-06-24T00:18:27;100251.19;;;13.32;92.73
77770;BME280;66961;51.482;9.160;2023-06-24T00:20:52;100252.88;;;13.25;92.83
77770;BME280;66961;51.482;9.160;2023-06-24T00:23:21;100259.03;;;13.17;92.93
77770;BME280;66961;51.482;9.160;2023-06-24T00:25:47;100263.31;;;13.10;93.23
77770;BME280;66961;51.482;9.160;2023-06-24T00:28:12;100254.00;;;13.06;93.58
77770;BME280;66961;51.482;9.160;2023-06-24T00:30:37;100255.00;;;13.05;93.95
77770;BME280;66961;51.482;9.160;2023-06-24T00:33:03;100259.19;;;13.00;93.75
77770;BME280;66961;51.482;9.160;2023-06-24T00:35:28;100266.66;;;12.96;94.54
77770;BME280;66961;51.482;9.160;2023-06-24T00:37:53;100264.66;;;12.90;95.13
77770;BME280;66961;51.482;9.160;2023-06-24T00:40:18;100269.31;;;12.88;95.75
77770;BME280;66961;51.482;9.160;2023-06-24T00:42:44;100269.31;;;12.88;97.30
77770;BME280;66961;51.482;9.160;2023-06-24T00:45:11;100275.97;;;12.92;97.42
77770;BME280;66961;51.482;9.160;2023-06-24T00:47:36;100281.47;;;12.90;97.59
77770;BME280;66961;51.482;9.160;2023-06-24T00:50:02;100277.97;;;12.90;98.28
77770;BME280;66961;51.482;9.160;2023-06-24T00:52:27;100283.28;;;12.90;98.97
77770;BME280;66961;51.482;9.160;2023-06-24T00:54:52;100275.16;;;12.91;99.32
77770;BME280;66961;51.482;9.160;2023-06-24T00:57:19;100283.47;;;12.97;99.69
77770;BME280;66961;51.482;9.160;2023-06-24T00:59:47;100282.31;;;12.99;100.00
77770;BME280;66961;51.482;9.160;2023-06-24T01:02:12;100290.44;;;12.89;99.13
77770;BME280;66961;51.482;9.160;2023-06-24T01:04:38;100285.44;;;12.78;98.71
77770;BME280;66961;51.482;9.160;2023-06-24T01:07:05;100282.75;;;12.70;98.56
77770;BME280;66961;51.482;9.160;2023-06-24T01:09:30;100288.06;;;12.70;98.86
77770;BME280;66961;51.482;9.160;2023-06-24T01:11:56;100286.41;;;12.69;98.88
77770;BME280;66961;51.482;9.160;2023-06-24T01:14:21;100290.56;;;12.64;98.42
77770;BME280;66961;51.482;9.160;2023-06-24T01:17:15;100290.72;;;12.62;98.32
77770;BME280;66961;51.482;9.160;2023-06-24T01:20:00;100286.88;;;12.56;98.15
77770;BME280;66961;51.482;9.160;2023-06-24T01:28:14;100292.69;;;12.52;99.27
77770;BME280;66961;51.482;9.160;2023-06-24T01:36:25;100275.91;;;12.51;99.24
77770;BME280;66961;51.482;9.160;2023-06-24T01:38:58;100279.41;;;12.44;98.59
77770;BME280;66961;51.482;9.160;2023-06-24T01:41:26;100282.69;;;12.38;99.10
77770;BME280;66961;51.482;9.160;2023-06-24T01:43:57;100278.38;;;12.37;99.75
77770;BME280;66961;51.482;9.160;2023-06-24T01:46:25;100280.53;;;12.33;99.89
77770;BME280;66961;51.482;9.160;2023-06-24T01:48:54;100273.69;;;12.31;99.68
77770;BME280;66961;51.482;9.160;2023-06-24T01:51:22;100276.88;;;12.34;100.00
77770;BME280;66961;51.482;9.160;2023-06-24T01:53:52;100276.03;;;12.34;100.00
77770;BME280;66961;51.482;9.160;2023-06-24T01:56:20;100279.53;;;12.34;100.00
77770;BME280;66961;51.482;9.160;2023-06-24T01:58:47;100279.19;;;12.29;100.00
77770;BME280;66961;51.482;9.160;2023-06-24T02:01:16;100283.66;;;12.29;100.00
77770;BME280;66961;51.482;9.160;2023-06-24T02:03:44;100271.03;;;12.31;100.00
77770;BME280;66961;51.482;9.160;2023-06-24T02:06:10;100273.53;;;12.32;100.00
77770;BME280;66961;51.482;9.160;2023-06-24T02:08:38;100276.34;;;12.31;100.00
77770;BME280;66961;51.482;9.160;2023-06-24T02:11:06;100270.38;;;12.29;100.00
77770;BME280;66961;51.482;9.160;2023-06-24T02:13:33;100266.38;;;12.24;100.00
77770;BME280;66961;51.482;9.160;2023-06-24T02:16:00;100275.00;;;12.26;100.00
77770;BME280;66961;51.482;9.160;2023-06-24T02:18:27;100271.53;;;12.26;100.00
77770;BME280;66961;51.482;9.160;2023-06-24T02:20:53;100266.53;;;12.23;100.00
77770;BME280;66961;51.482;9.160;2023-06-24T02:23:20;100276.31;;;12.22;100.00
77770;BME280;66961;51.482;9.160;2023-06-24T02:25:46;100272.84;;;12.22;100.00
77770;BME280;66961;51.482;9.160;2023-06-24T02:28:12;100281.97;;;12.19;100.00
77770;BME280;66961;51.482;9.160;2023-06-24T02:30:39;100288.28;;;12.18;100.00
77770;BME280;66961;51.482;9.160;2023-06-24T02:33:05;100282.59;;;12.13;100.00
77770;BME280;66961;51.482;9.160;2023-06-24T02:35:30;100290.38;;;12.07;100.00
77770;BME280;66961;51.482;9.160;2023-06-24T02:37:56;100291.06;;;12.09;100.00
77770;BME280;66961;51.482;9.160;2023-06-24T02:40:21;100280.38;;;12.01;100.00
77770;BME280;66961;51.482;9.160;2023-06-24T02:42:46;100281.22;;;12.01;100.00
77770;BME280;66961;51.482;9.160;2023-06-24T02:45:12;100274.56;;;11.97;100.00
77770;BME280;66961;51.482;9.160;2023-06-24T02:47:38;100281.69;;;11.97;100.00
77770;BME280;66961;51.482;9.160;2023-06-24T02:50:06;100268.75;;;11.93;100.00
77770;BME280;66961;51.482;9.160;2023-06-24T02:52:33;100277.22;;;11.97;100.00
77770;BME280;66961;51.482;9.160;2023-06-24T02:54:59;100270.91;;;11.98;100.00
77770;BME280;66961;51.482;9.160;2023-06-24T02:57:25;100278.72;;;12.00;100.00
77770;BME280;66961;51.482;9.160;2023-06-24T02:59:51;100276.56;;;11.95;100.00
77770;BME280;66961;51.482;9.160;2023-06-24T03:02:17;100289.34;;;11.91;100.00
77770;BME280;66961;51.482;9.160;2023-06-24T03:04:44;100294.28;;;11.86;100.00
77770;BME280;66961;51.482;9.160;2023-06-24T03:07:10;100287.47;;;11.84;100.00
77770;BME280;66961;51.482;9.160;2023-06-24T03:09:36;100289.28;;;11.83;100.00
77770;BME280;66961;51.482;9.160;2023-06-24T03:12:01;100283.78;;;11.77;100.00
77770;BME280;66961;51.482;9.160;2023-06-24T03:14:27;100296.34;;;11.75;100.00
77770;BME280;66961;51.482;9.160;2023-06-24T03:16:52;100296.66;;;11.72;100.00
77770;BME280;66961;51.482;9.160;2023-06-24T03:19:17;100297.34;;;11.74;100.00
77770;BME280;66961;51.482;9.160;2023-06-24T03:21:43;100294.53;;;11.75;100.00
77770;BME280;66961;51.482;9.160;2023-06-24T03:24:08;100302.63;;;11.74;100.00
77770;BME280;66961;51.482;9.160;2023-06-24T03:26:38;100296.97;;;11.69;100.00
77770;BME280;66961;51.482;9.160;2023-06-24T03:29:03;100306.13;;;11.74;100.00
77770;BME280;66961;51.482;9.160;2023-06-24T03:31:29;100297.50;;;11.72;100.00
77770;BME280;66961;51.482;9.160;2023-06-24T03:33:55;100302.78;;;11.72;100.00
77770;BME280;66961;51.482;9.160;2023-06-24T03:36:20;100301.97;;;11.72;100.00
77770;BME280;66961;51.482;9.160;2023-06-24T03:38:46;100294.53;;;11.75;100.00
77770;BME280;66961;51.482;9.160;2023-06-24T03:41:11;100291.03;;;11.75;100.00
77770;BME280;66961;51.482;9.160;2023-06-24T03:43:36;100293.53;;;11.76;100.00
77770;BME280;66961;51.482;9.160;2023-06-24T03:46:02;100285.13;;;11.81;100.00
77770;BME280;66961;51.482;9.160;2023-06-24T03:48:27;100284.13;;;11.82;100.00
77770;BME280;66961;51.482;9.160;2023-06-24T03:50:53;100290.13;;;11.84;100.00
77770;BME280;66961;51.482;9.160;2023-06-24T03:53:18;100287.31;;;11.85;100.00
77770;BME280;66961;51.482;9.160;2023-06-24T03:55:43;100292.00;;;11.91;100.00
77770;BME280;66961;51.482;9.160;2023-06-24T03:58:08;100297.81;;;11.95;100.00
77770;BME280;66961;51.482;9.160;2023-06-24T04:00:34;100298.81;;;12.02;100.00
77770;BME280;66961;51.482;9.160;2023-06-24T04:02:59;100298.00;;;12.02;100.00
77770;BME280;66961;51.482;9.160;2023-06-24T04:05:24;100304.66;;;12.06;100.00
77770;BME280;66961;51.482;9.160;2023-06-24T04:07:50;100299.19;;;12.07;100.00
77770;BME280;66961;51.482;9.160;2023-06-24T04:10:15;100301.38;;;12.12;100.00
77770;BME280;66961;51.482;9.160;2023-06-24T04:12:40;100305.53;;;12.14;100.00
77770;BME280;66961;51.482;9.160;2023-06-24T04:15:06;100308.53;;;12.19;100.00
77770;BME280;66961;51.482;9.160;2023-06-24T04:17:31;100306.41;;;12.23;100.00
77770;BME280;66961;51.482;9.160;2023-06-24T04:19:57;100285.63;;;12.18;100.00
77770;BME280;66961;51.482;9.160;2023-06-24T04:22:22;100297.94;;;12.27;100.00
77770;BME280;66961;51.482;9.160;2023-06-24T04:24:48;100314.09;;;12.34;99.94
77770;BME280;66961;51.482;9.160;2023-06-24T04:27:13;100320.06;;;12.36;99.68
77770;BME280;66961;51.482;9.160;2023-06-24T04:29:38;100322.41;;;12.39;99.93
77770;BME280;66961;51.482;9.160;2023-06-24T04:32:04;100313.59;;;12.39;99.85
77770;BME280;66961;51.482;9.160;2023-06-24T04:34:29;100321.41;;;12.48;99.23
77770;BME280;66961;51.482;9.160;2023-06-24T04:36:54;100318.94;;;12.55;99.71
77770;BME280;66961;51.482;9.160;2023-06-24T04:39:20;100315.16;;;12.66;99.09
77770;BME280;66961;51.482;9.160;2023-06-24T04:41:45;100316.50;;;12.70;98.64
77770;BME280;66961;51.482;9.160;2023-06-24T04:44:11;100318.34;;;12.77;98.58
77770;BME280;66961;51.482;9.160;2023-06-24T04:46:36;100315.88;;;12.84;98.39
77770;BME280;66961;51.482;9.160;2023-06-24T04:49:02;100316.72;;;12.92;98.33
77770;BME280;66961;51.482;9.160;2023-06-24T04:51:27;100324.03;;;12.99;98.01
77770;BME280;66961;51.482;9.160;2023-06-24T04:53:52;100325.84;;;13.06;98.23
77770;BME280;66961;51.482;9.160;2023-06-24T04:56:17;100327.69;;;13.14;98.06
77770;BME280;66961;51.482;9.160;2023-06-24T04:58:43;100329.72;;;13.20;97.72
77770;BME280;66961;51.482;9.160;2023-06-24T05:01:08;100333.41;;;13.27;97.75
77770;BME280;66961;51.482;9.160;2023-06-24T05:03:33;100331.06;;;13.32;97.71
77770;BME280;66961;51.482;9.160;2023-06-24T05:05:58;100333.72;;;13.40;97.27
77770;BME280;66961;51.482;9.160;2023-06-24T05:08:24;100335.06;;;13.44;97.00
77770;BME280;66961;51.482;9.160;2023-06-24T05:10:49;100332.38;;;13.52;96.83
77770;BME280;66961;51.482;9.160;2023-06-24T05:13:14;100333.38;;;13.59;97.07
77770;BME280;66961;51.482;9.160;2023-06-24T05:15:40;100322.69;;;13.68;97.14
77770;BME280;66961;51.482;9.160;2023-06-24T05:18:05;100335.50;;;13.80;96.93
77770;BME280;66961;51.482;9.160;2023-06-24T05:20:30;100344.31;;;13.89;96.51
77770;BME280;66961;51.482;9.160;2023-06-24T05:22:56;100337.63;;;14.01;95.62
77770;BME280;66961;51.482;9.160;2023-06-24T05:25:21;100331.41;;;14.09;95.19
77770;BME280;66961;51.482;9.160;2023-06-24T05:27:46;100335.03;;;14.24;94.89
77770;BME280;66961;51.482;9.160;2023-06-24T05:30:12;100327.84;;;14.33;94.87
77770;BME280;66961;51.482;9.160;2023-06-24T05:32:37;100334.84;;;14.42;93.58
77770;BME280;66961;51.482;9.160;2023-06-24T05:35:03;100333.97;;;14.49;93.28
77770;BME280;66961;51.482;9.160;2023-06-24T05:37:29;100324.13;;;14.50;92.84
77770;BME280;66961;51.482;9.160;2023-06-24T05:39:54;100333.69;;;14.67;91.90
77770;BME280;66961;51.482;9.160;2023-06-24T05:42:19;100338.97;;;14.75;91.79
77770;BME280;66961;51.482;9.160;2023-06-24T05:44:45;100337.28;;;14.82;92.01
77770;BME280;66961;51.482;9.160;2023-06-24T05:47:10;100344.88;;;14.94;92.20
77770;BME280;66961;51.482;9.160;2023-06-24T05:49:35;100345.50;;;15.04;90.26
77770;BME280;66961;51.482;9.160;2023-06-24T05:52:00;100349.09;;;15.11;88.38
77770;BME280;66961;51.482;9.160;2023-06-24T05:54:26;100359.34;;;15.22;88.43
77770;BME280;66961;51.482;9.160;2023-06-24T05:56:51;100361.78;;;15.32;87.75
77770;BME280;66961;51.482;9.160;2023-06-24T05:59:16;100358.53;;;15.44;86.12
77770;BME280;66961;51.482;9.160;2023-06-24T06:01:41;100354.78;;;15.53;85.92
77770;BME280;66961;51.482;9.160;2023-06-24T06:04:07;100358.22;;;15.62;85.00
77770;BME280;66961;51.482;9.160;2023-06-24T06:06:32;100355.66;;;15.69;84.91
77770;BME280;66961;51.482;9.160;2023-06-24T06:08:58;100357.69;;;15.81;84.84
77770;BME280;66961;51.482;9.160;2023-06-24T06:11:24;100358.91;;;15.94;84.05
77770;BME280;66961;51.482;9.160;2023-06-24T06:13:49;100354.31;;;16.02;83.68
77770;BME280;66961;51.482;9.160;2023-06-24T06:16:15;100350.59;;;16.18;83.66
77770;BME280;66961;51.482;9.160;2023-06-24T06:18:40;100343.97;;;16.29;82.71
77770;BME280;66961;51.482;9.160;2023-06-24T06:21:05;100344.59;;;16.45;83.50
77770;BME280;66961;51.482;9.160;2023-06-24T06:23:30;100347.63;;;16.57;83.97
77770;BME280;66961;51.482;9.160;2023-06-24T06:25:56;100348.63;;;16.71;83.39
77770;BME280;66961;51.482;9.160;2023-06-24T06:28:21;100354.97;;;16.84;83.45
77770;BME280;66961;51.482;9.160;2023-06-24T06:30:46;100356.53;;;16.94;83.69
77770;BME280;66961;51.482;9.160;2023-06-24T06:33:12;100352.91;;;17.01;80.88
77770;BME280;66961;51.482;9.160;2023-06-24T06:35:37;100359.34;;;17.07;81.85
77770;BME280;66961;51.482;9.160;2023-06-24T06:38:04;100353.34;;;17.26;82.93
77770;BME280;66961;51.482;9.160;2023-06-24T06:40:29;100360.22;;;17.35;82.79
77770;BME280;66961;51.482;9.160;2023-06-24T06:42:55;100346.63;;;17.37;82.05
77770;BME280;66961;51.482;9.160;2023-06-24T06:45:20;100347.97;;;17.47;81.86
77770;BME280;66961;51.482;9.160;2023-06-24T06:47:45;100342.09;;;17.59;82.19
77770;BME280;66961;51.482;9.160;2023-06-24T06:50:10;100342.34;;;17.64;80.99
77770;BME280;66961;51.482;9.160;2023-06-24T06:52:36;100340.16;;;17.74;81.10
77770;BME280;66961;51.482;9.160;2023-06-24T06:55:01;100343.75;;;17.88;80.99
77770;BME280;66961;51.482;9.160;2023-06-24T06:57:26;100341.81;;;18.03;80.72
77770;BME280;66961;51.482;9.160;2023-06-24T06:59:52;100349.69;;;18.11;80.12
77770;BME280;66961;51.482;9.160;2023-06-24T07:02:20;100350.97;;;18.22;80.22
77770;BME280;66961;51.482;9.160;2023-06-24T07:04:45;100360.53;;;18.31;80.22
77770;BME280;66961;51.482;9.160;2023-06-24T07:07:11;100356.44;;;18.41;81.10
77770;BME280;66961;51.482;9.160;2023-06-24T07:09:36;100351.75;;;18.50;80.95
77770;BME280;66961;51.482;9.160;2023-06-24T07:12:01;100343.59;;;18.65;78.67
77770;BME280;66961;51.482;9.160;2023-06-24T07:14:27;100344.84;;;18.75;79.01
77770;BME280;66961;51.482;9.160;2023-06-24T07:16:52;100342.19;;;18.89;77.77
77770;BME280;66961;51.482;9.160;2023-06-24T07:19:17;100344.50;;;18.98;76.91
77770;BME280;66961;51.482;9.160;2023-06-24T07:21:43;100338.53;;;19.16;77.47
77770;BME280;66961;51.482;9.160;2023-06-24T07:24:08;100343.91;;;19.29;76.98
77770;BME280;66961;51.482;9.160;2023-06-24T07:26:33;100345.38;;;19.38;73.76
77770;BME280;66961;51.482;9.160;2023-06-24T07:28:59;100351.16;;;19.48;74.37
77770;BME280;66961;51.482;9.160;2023-06-24T07:31:24;100356.78;;;19.67;75.04
77770;BME280;66961;51.482;9.160;2023-06-24T07:33:50;100355.72;;;19.81;73.11
77770;BME280;66961;51.482;9.160;2023-06-24T07:36:15;100351.38;;;19.93;72.13
77770;BME280;66961;51.482;9.160;2023-06-24T07:38:40;100352.19;;;19.94;71.73
77770;BME280;66961;51.482;9.160;2023-06-24T07:41:05;100352.59;;;20.04;71.30
77770;BME280;66961;51.482;9.160;2023-06-24T07:43:31;100345.31;;;20.17;71.27
77770;BME280;66961;51.482;9.160;2023-06-24T07:45:56;100347.19;;;20.24;71.01
77770;BME280;66961;51.482;9.160;2023-06-24T07:48:21;100352.09;;;20.33;69.81
77770;BME280;66961;51.482;9.160;2023-06-24T07:50:47;100346.69;;;20.53;71.80
77770;BME280;66961;51.482;9.160;2023-06-24T07:53:12;100345.16;;;20.70;69.33
77770;BME280;66961;51.482;9.160;2023-06-24T07:55:37;100338.63;;;20.85;68.64
77770;BME280;66961;51.482;9.160;2023-06-24T07:58:02;100345.59;;;20.99;68.12
77770;BME280;66961;51.482;9.160;2023-06-24T08:00:28;100345.09;;;21.15;65.11
77770;BME280;66961;51.482;9.160;2023-06-24T08:02:53;100344.66;;;21.18;64.49
77770;BME280;66961;51.482;9.160;2023-06-24T08:05:19;100333.28;;;21.16;63.83
77770;BME280;66961;51.482;9.160;2023-06-24T08:07:44;100337.19;;;21.20;61.77
77770;BME280;66961;51.482;9.160;2023-06-24T08:10:09;100340.97;;;21.44;61.50
77770;BME280;66961;51.482;9.160;2023-06-24T08:12:35;100334.03;;;21.55;60.26
77770;BME280;66961;51.482;9.160;2023-06-24T08:15:00;100336.78;;;21.73;58.94
77770;BME280;66961;51.482;9.160;2023-06-24T08:17:26;100340.38;;;21.85;57.18
77770;BME280;66961;51.482;9.160;2023-06-24T08:19:51;100330.94;;;21.94;58.58
77770;BME280;66961;51.482;9.160;2023-06-24T08:22:16;100335.47;;;22.00;55.45
77770;BME280;66961;51.482;9.160;2023-06-24T08:24:41;100335.66;;;22.05;55.77
77770;BME280;66961;51.482;9.160;2023-06-24T08:27:06;100332.75;;;22.25;55.68
77770;BME280;66961;51.482;9.160;2023-06-24T08:29:32;100336.59;;;22.48;56.60
77770;BME280;66961;51.482;9.160;2023-06-24T08:31:57;100335.78;;;22.47;56.83
77770;BME280;66961;51.482;9.160;2023-06-24T08:34:22;100325.19;;;22.64;55.05
77770;BME280;66961;51.482;9.160;2023-06-24T08:36:48;100330.22;;;22.78;49.53
77770;BME280;66961;51.482;9.160;2023-06-24T08:39:13;100327.44;;;22.97;50.92
77770;BME280;66961;51.482;9.160;2023-06-24T08:41:38;100324.78;;;23.08;50.78
77770;BME280;66961;51.482;9.160;2023-06-24T08:44:03;100330.72;;;23.29;50.36
77770;BME280;66961;51.482;9.160;2023-06-24T08:46:29;100326.72;;;23.31;50.72
77770;BME280;66961;51.482;9.160;2023-06-24T08:51:51;100332.31;;;23.60;48.77
77770;BME280;66961;51.482;9.160;2023-06-24T08:54:20;100331.13;;;23.56;48.98
77770;BME280;66961;51.482;9.160;2023-06-24T08:56:46;100331.84;;;23.63;52.48
77770;BME280;66961;51.482;9.160;2023-06-24T08:59:11;100332.44;;;23.76;52.83
77770;BME280;66961;51.482;9.160;2023-06-24T09:01:37;100335.84;;;23.95;50.11
77770;BME280;66961;51.482;9.160;2023-06-24T09:04:02;100340.41;;;24.06;48.11
77770;BME280;66961;51.482;9.160;2023-06-24T09:06:28;100334.91;;;23.78;47.76
77770;BME280;66961;51.482;9.160;2023-06-24T09:08:54;100339.16;;;23.86;47.90
77770;BME280;66961;51.482;9.160;2023-06-24T09:11:26;100337.00;;;23.99;47.36
77770;BME280;66961;51.482;9.160;2023-06-24T09:13:59;100344.53;;;24.09;47.54
77770;BME280;66961;51.482;9.160;2023-06-24T09:16:26;100344.78;;;24.31;48.22
77770;BME280;66961;51.482;9.160;2023-06-24T09:18:52;100330.97;;;24.72;48.34
77770;BME280;66961;51.482;9.160;2023-06-24T09:23:51;100336.22;;;24.91;49.26
77770;BME280;66961;51.482;9.160;2023-06-24T09:26:17;100326.72;;;25.05;46.98
77770;BME280;66961;51.482;9.160;2023-06-24T09:28:47;100333.03;;;24.94;45.93
77770;BME280;66961;51.482;9.160;2023-06-24T09:31:12;100324.56;;;25.35;46.93
77770;BME280;66961;51.482;9.160;2023-06-24T09:33:39;100329.13;;;25.52;46.89
77770;BME280;66961;51.482;9.160;2023-06-24T09:36:05;100325.69;;;25.90;48.30
77770;BME280;66961;51.482;9.160;2023-06-24T09:38:37;100321.78;;;26.02;46.96
77770;BME280;66961;51.482;9.160;2023-06-24T09:41:03;100313.13;;;26.05;47.21
77770;BME280;66961;51.482;9.160;2023-06-24T09:43:28;100307.41;;;26.24;45.44
77770;BME280;66961;51.482;9.160;2023-06-24T09:45:54;100311.63;;;26.15;45.48
77770;BME280;66961;51.482;9.160;2023-06-24T09:48:20;100308.72;;;26.21;46.42
77770;BME280;66961;51.482;9.160;2023-06-24T09:50:46;100302.25;;;26.44;45.75
77770;BME280;66961;51.482;9.160;2023-06-24T09:53:12;100300.94;;;26.52;43.27
77770;BME280;66961;51.482;9.160;2023-06-24T09:55:37;100299.34;;;26.12;44.08
77770;BME280;66961;51.482;9.160;2023-06-24T09:58:04;100301.63;;;26.20;44.20
77770;BME280;66961;51.482;9.160;2023-06-24T10:00:29;100300.84;;;26.42;47.16
77770;BME280;66961;51.482;9.160;2023-06-24T10:02:54;100290.16;;;26.84;41.80
77770;BME280;66961;51.482;9.160;2023-06-24T10:05:20;100293.78;;;27.21;44.98
77770;BME280;66961;51.482;9.160;2023-06-24T10:07:46;100290.59;;;27.29;41.73
77770;BME280;66961;51.482;9.160;2023-06-24T10:10:11;100287.66;;;27.36;45.72
77770;BME280;66961;51.482;9.160;2023-06-24T10:12:37;100294.75;;;27.37;45.23
77770;BME280;66961;51.482;9.160;2023-06-24T10:15:03;100284.50;;;27.91;42.71
77770;BME280;66961;51.482;9.160;2023-06-24T10:17:30;100289.69;;;27.93;44.48
77770;BME280;66961;51.482;9.160;2023-06-24T10:19:55;100274.47;;;28.02;42.97
77770;BME280;66961;51.482;9.160;2023-06-24T10:22:23;100290.75;;;27.87;42.62
77770;BME280;66961;51.482;9.160;2023-06-24T10:24:50;100286.91;;;27.83;43.76
77770;BME280;66961;51.482;9.160;2023-06-24T10:27:18;100282.06;;;27.95;43.37
77770;BME280;66961;51.482;9.160;2023-06-24T10:29:48;100269.59;;;28.04;42.92
77770;BME280;66961;51.482;9.160;2023-06-24T10:32:14;100274.22;;;28.09;41.57
77770;BME280;66961;51.482;9.160;2023-06-24T10:34:41;100258.34;;;27.90;44.58
77770;BME280;66961;51.482;9.160;2023-06-24T10:44:48;100261.94;;;26.90;46.31
77770;BME280;66961;51.482;9.160;2023-06-24T10:47:14;100257.50;;;26.84;43.05
77770;BME280;66961;51.482;9.160;2023-06-24T10:49:39;100255.91;;;26.61;45.18
77770;BME280;66961;51.482;9.160;2023-06-24T10:52:08;100250.28;;;26.94;43.77
77770;BME280;66961;51.482;9.160;2023-06-24T10:54:34;100258.84;;;27.08;42.43
77770;BME280;66961;51.482;9.160;2023-06-24T10:57:00;100240.03;;;27.39;42.21
77770;BME280;66961;51.482;9.160;2023-06-24T10:59:25;100251.81;;;27.49;46.62
77770;BME280;66961;51.482;9.160;2023-06-24T11:01:53;100250.66;;;27.40;42.29
77770;BME280;66961;51.482;9.160;2023-06-24T11:04:19;100249.97;;;27.60;44.14
77770;BME280;66961;51.482;9.160;2023-06-24T11:06:59;100243.53;;;27.76;44.63
77770;BME280;66961;51.482;9.160;2023-06-24T11:09:25;100235.78;;;28.00;42.61
77770;BME280;66961;51.482;9.160;2023-06-24T11:11:50;100236.34;;;28.12;42.19
77770;BME280;66961;51.482;9.160;2023-06-24T11:14:16;100229.13;;;28.43;41.38
77770;BME280;66961;51.482;9.160;2023-06-24T11:16:41;100224.25;;;28.76;42.16
77770;BME280;66961;51.482;9.160;2023-06-24T11:19:08;100224.78;;;28.67;42.08
77770;BME280;66961;51.482;9.160;2023-06-24T11:21:33;100224.53;;;29.20;38.39
77770;BME280;66961;51.482;9.160;2023-06-24T11:24:05;100223.72;;;29.45;39.78
77770;BME280;66961;51.482;9.160;2023-06-24T11:26:31;100219.78;;;29.86;35.02
77770;BME280;66961;51.482;9.160;2023-06-24T11:28:57;100220.06;;;30.44;34.34
77770;BME280;66961;51.482;9.160;2023-06-24T11:31:25;100220.06;;;30.44;34.95
77770;BME280;66961;51.482;9.160;2023-06-24T11:33:51;100214.44;;;30.70;34.90
77770;BME280;66961;51.482;9.160;2023-06-24T11:36:20;100223.72;;;30.74;37.33
77770;BME280;66961;51.482;9.160;2023-06-24T11:38:46;100214.63;;;30.39;36.26
77770;BME280;66961;51.482;9.160;2023-06-24T11:41:11;100218.94;;;30.89;34.99
77770;BME280;66961;51.482;9.160;2023-06-24T11:43:37;100215.44;;;30.40;37.09
77770;BME280;66961;51.482;9.160;2023-06-24T11:46:02;100211.66;;;30.30;36.51
77770;BME280;66961;51.482;9.160;2023-06-24T11:48:28;100211.56;;;29.86;37.27
77770;BME280;66961;51.482;9.160;2023-06-24T11:50:54;100205.16;;;29.31;38.65
77770;BME280;66961;51.482;9.160;2023-06-24T11:53:29;100199.16;;;29.19;40.86
77770;BME280;66961;51.482;9.160;2023-06-24T11:55:56;100202.63;;;29.65;39.55
77770;BME280;66961;51.482;9.160;2023-06-24T11:58:21;100196.41;;;29.24;37.67
77770;BME280;66961;51.482;9.160;2023-06-24T12:00:48;100199.59;;;29.77;36.38
77770;BME280;66961;51.482;9.160;2023-06-24T12:03:13;100201.84;;;29.40;35.25
77770;BME280;66961;51.482;9.160;2023-06-24T12:05:39;100195.88;;;29.12;35.08
77770;BME280;66961;51.482;9.160;2023-06-24T12:08:07;100189.59;;;28.71;34.86
77770;BME280;66961;51.482;9.160;2023-06-24T12:10:33;100186.47;;;28.17;39.37
77770;BME280;66961;51.482;9.160;2023-06-24T12:13:00;100188.16;;;28.23;36.50
77770;BME280;66961;51.482;9.160;2023-06-24T12:15:26;100189.03;;;29.45;37.20
77770;BME280;66961;51.482;9.160;2023-06-24T12:17:52;100189.56;;;30.22;33.62
77770;BME280;66961;51.482;9.160;2023-06-24T12:20:17;100178.69;;;30.56;33.40
77770;BME280;66961;51.482;9.160;2023-06-24T12:22:43;100181.94;;;31.26;33.21
77770;BME280;66961;51.482;9.160;2023-06-24T12:25:09;100183.88;;;31.49;33.79
77770;BME280;66961;51.482;9.160;2023-06-24T12:27:34;100178.84;;;31.33;35.85
77770;BME280;66961;51.482;9.160;2023-06-24T12:30:00;100178.47;;;31.44;36.13
77770;BME280;66961;51.482;9.160;2023-06-24T12:32:26;100175.72;;;31.92;34.11
77770;BME280;66961;51.482;9.160;2023-06-24T12:34:51;100176.25;;;32.13;37.13
77770;BME280;66961;51.482;9.160;2023-06-24T12:37:17;100171.16;;;32.25;34.89
77770;BME280;66961;51.482;9.160;2023-06-24T12:39:42;100168.63;;;32.66;32.98
77770;BME280;66961;51.482;9.160;2023-06-24T12:42:07;100167.81;;;32.47;33.42
77770;BME280;66961;51.482;9.160;2023-06-24T12:44:33;100163.00;;;32.57;34.48
77770;BME280;66961;51.482;9.160;2023-06-24T12:46:58;100157.75;;;32.23;33.60
77770;BME280;66961;51.482;9.160;2023-06-24T12:49:23;100171.59;;;30.50;34.31
77770;BME280;66961;51.482;9.160;2023-06-24T12:51:49;100165.56;;;30.58;35.17
77770;BME280;66961;51.482;9.160;2023-06-24T12:54:14;100162.97;;;30.33;35.34
77770;BME280;66961;51.482;9.160;2023-06-24T12:56:39;100163.38;;;30.89;33.25
77770;BME280;66961;51.482;9.160;2023-06-24T12:59:05;100160.97;;;31.40;34.11
77770;BME280;66961;51.482;9.160;2023-06-24T13:01:30;100156.63;;;32.06;33.31
77770;BME280;66961;51.482;9.160;2023-06-24T13:03:55;100152.59;;;33.19;31.08
77770;BME280;66961;51.482;9.160;2023-06-24T13:06:20;100155.50;;;33.69;32.23